Amy C — MKWC7 — position and weather

sailwx.info

Track history (hours):
 
Tides and Currents Weather Stations Pressure Air Temp Water Temp Dewpoint Dewpoint Depression Visibility Wind Speed Wind Dir Waves Ship Positions

Amy C

Last reported at 2016-Aug-27 07:04 UTC. Time now 2016-Aug-29 00:13 UTC.
Position N 35°23' W 010°35'.

Length 136 m; draft 8.6 m.

Type: Ship. MMSI: 235010170.

Date/timePositionNaut miles runAvg speedWind from/ knotsBaromVisibWave heightAir tempDewpointWater temp
2016-Aug-27 07:04N 35°23' W 010°35'24513.7
2016-Aug-26 13:08N 35°57' W 005°36'711.8
2016-Aug-26 12:33N 35°60' W 005°28'9 9.0
2016-Aug-26 11:32N 36°08' W 005°22'0 0.0
2016-Aug-26 10:29N 36°07' W 005°22'0 0.0
2016-Aug-26 09:32N 36°07' W 005°22'0 0.0
2016-Aug-26 08:26N 36°07' W 005°22'0 0.0
2016-Aug-26 07:20N 36°08' W 005°22'0 0.1
2016-Aug-26 06:29N 36°08' W 005°22'0 0.1
2016-Aug-26 04:32N 36°08' W 005°22'0 0.0
2016-Aug-26 03:29N 36°08' W 005°22'0 0.0
2016-Aug-26 02:32N 36°08' W 005°22'0 0.0
2016-Aug-26 01:32N 36°08' W 005°22'0 0.1
2016-Aug-26 00:32N 36°08' W 005°22'0 0.1
2016-Aug-25 23:34N 36°08' W 005°22'4 4.4
2016-Aug-25 22:34N 36°05' W 005°17'2 2.0
2016-Aug-25 21:34N 36°06' W 005°15'5 4.8
2016-Aug-25 20:33N 36°05' W 005°09'30610.9
2016-Aug-24 16:33N 39°25' W 000°16'3 3.1
2016-Aug-24 15:28N 39°27' W 000°19'0 0.0
2016-Aug-24 14:31N 39°27' W 000°19'0 0.0
2016-Aug-24 13:28N 39°27' W 000°19'0 0.0
2016-Aug-24 09:31N 39°27' W 000°19'0 0.0
2016-Aug-24 07:22N 39°27' W 000°19'0 0.0
2016-Aug-24 06:31N 39°27' W 000°19'0 0.0
2016-Aug-24 04:31N 39°27' W 000°19'0 0.0
2016-Aug-24 03:25N 39°27' W 000°19'0 0.0
2016-Aug-24 02:31N 39°27' W 000°19'0 0.0
2016-Aug-24 01:31N 39°27' W 000°19'0 0.0
2016-Aug-24 00:22N 39°27' W 000°19'0 0.0
2016-Aug-23 20:13N 39°27' W 000°19'0 0.0
2016-Aug-23 17:16N 39°27' W 000°19'0 0.0
2016-Aug-23 16:22N 39°27' W 000°19'0 0.0
2016-Aug-23 15:10N 39°27' W 000°19'0 0.0
2016-Aug-23 14:28N 39°27' W 000°19'0 0.0
2016-Aug-23 13:31N 39°27' W 000°19'0 0.0
2016-Aug-23 12:31N 39°27' W 000°19'0 0.0
2016-Aug-23 11:31N 39°27' W 000°19'0 0.0
2016-Aug-23 10:28N 39°27' W 000°19'0 0.0
2016-Aug-23 09:28N 39°27' W 000°19'0 0.0
2016-Aug-23 08:31N 39°27' W 000°19'0 0.0
2016-Aug-23 07:28N 39°27' W 000°19'0 0.0
2016-Aug-23 06:28N 39°27' W 000°19'0 0.0
2016-Aug-23 05:31N 39°27' W 000°19'0 0.0
2016-Aug-23 04:31N 39°27' W 000°19'0 0.0
2016-Aug-23 03:31N 39°27' W 000°19'0 0.0
2016-Aug-23 02:31N 39°27' W 000°19'0 0.0
2016-Aug-23 01:31N 39°27' W 000°19'0 0.0
2016-Aug-23 00:31N 39°27' W 000°19'0 0.0
2016-Aug-22 23:31N 39°27' W 000°19'0 0.0
2016-Aug-22 22:31N 39°27' W 000°19'0 0.0
2016-Aug-22 21:31N 39°27' W 000°19'0 0.0
2016-Aug-22 20:31N 39°27' W 000°19'0 0.0
2016-Aug-22 19:28N 39°27' W 000°19'0 0.0
2016-Aug-22 18:31N 39°27' W 000°19'0 0.0
2016-Aug-22 17:31N 39°27' W 000°19'0 0.0
2016-Aug-22 16:31N 39°27' W 000°19'0 0.0
2016-Aug-22 15:16N 39°27' W 000°19'0 0.0
2016-Aug-22 14:25N 39°27' W 000°19'0 0.0
2016-Aug-22 13:31N 39°27' W 000°19'0 0.0
2016-Aug-22 12:28N 39°27' W 000°19'0 0.0
2016-Aug-22 11:19N 39°27' W 000°19'0 0.0
2016-Aug-22 10:31N 39°27' W 000°19'0 0.0
2016-Aug-22 09:28N 39°27' W 000°19'0 0.0
2016-Aug-22 08:31N 39°27' W 000°19'0 0.0
2016-Aug-22 06:25N 39°27' W 000°19'0 0.0
2016-Aug-22 05:25N 39°27' W 000°19'0 0.0
2016-Aug-22 04:22N 39°27' W 000°19'4 4.5
2016-Aug-22 03:32N 39°25' W 000°15'10111.1
2016-Aug-21 18:23N 37°44' W 000°22'1113.6
2016-Aug-21 17:33N 37°34' W 000°29'1413.5
2016-Aug-21 16:31N 37°25' W 000°42'6013.9
2016-Aug-21 12:11N 36°44' W 001°39'4813.1
2016-Aug-21 08:32N 36°20' W 002°30'1312.8
2016-Aug-21 07:33N 36°17' W 002°46'11115.5
2016-Aug-21 00:21N 36°02' W 005°02'1518.2
2016-Aug-20 23:33N 35°59' W 005°19'2116.3
2016-Aug-20 22:15N 35°54' W 005°45'42614.3
2016-Aug-19 16:30N 31°05' W 011°60'10514.2
2016-Aug-19 09:07N 29°52' W 013°28'2314.5
2016-Aug-19 07:32N 29°36' W 013°47'1414.1
2016-Aug-19 06:33N 29°25' W 013°57'1414.0
2016-Aug-19 05:33N 29°14' W 014°06'1414.5
2016-Aug-19 04:33N 29°02' W 014°16'1414.5
2016-Aug-19 03:33N 28°50' W 014°25'1414.3
2016-Aug-19 02:33N 28°39' W 014°35'1414.1
2016-Aug-19 01:33N 28°27' W 014°44'1414.2
2016-Aug-19 00:33N 28°15' W 014°52'1414.3
2016-Aug-18 23:33N 28°01' W 014°57'1414.1
2016-Aug-18 22:33N 27°48' W 015°03'1313.3
2016-Aug-18 21:33N 27°36' W 015°09'2613.1
2016-Aug-18 19:33N 27°14' W 015°25'1513.4
2016-Aug-18 18:25N 27°00' W 015°33'  
Track history (hours):
 
Tides and Currents Weather Stations Pressure Air Temp Water Temp Dewpoint Dewpoint Depression Visibility Wind Speed Wind Dir Waves Ship Positions

Amy C

Last reported at 2016-Aug-27 07:04 UTC. Time now 2016-Aug-29 00:13 UTC.
Position N 35°23' W 010°35'.

Length 136 m; draft 8.6 m.

Type: Ship. MMSI: 235010170.

Date/timePositionNaut miles runAvg speedWind from/ knotsBaromVisibWave heightAir tempDewpointWater temp
2016-Aug-27 07:04N 35°23' W 010°35'24513.7
2016-Aug-26 13:08N 35°57' W 005°36'711.8
2016-Aug-26 12:33N 35°60' W 005°28'9 9.0
2016-Aug-26 11:32N 36°08' W 005°22'0 0.0
2016-Aug-26 10:29N 36°07' W 005°22'0 0.0
2016-Aug-26 09:32N 36°07' W 005°22'0 0.0
2016-Aug-26 08:26N 36°07' W 005°22'0 0.0
2016-Aug-26 07:20N 36°08' W 005°22'0 0.1
2016-Aug-26 06:29N 36°08' W 005°22'0 0.1
2016-Aug-26 04:32N 36°08' W 005°22'0 0.0
2016-Aug-26 03:29N 36°08' W 005°22'0 0.0
2016-Aug-26 02:32N 36°08' W 005°22'0 0.0
2016-Aug-26 01:32N 36°08' W 005°22'0 0.1
2016-Aug-26 00:32N 36°08' W 005°22'0 0.1
2016-Aug-25 23:34N 36°08' W 005°22'4 4.4
2016-Aug-25 22:34N 36°05' W 005°17'2 2.0
2016-Aug-25 21:34N 36°06' W 005°15'5 4.8
2016-Aug-25 20:33N 36°05' W 005°09'30610.9
2016-Aug-24 16:33N 39°25' W 000°16'3 3.1
2016-Aug-24 15:28N 39°27' W 000°19'0 0.0
2016-Aug-24 14:31N 39°27' W 000°19'0 0.0
2016-Aug-24 13:28N 39°27' W 000°19'0 0.0
2016-Aug-24 09:31N 39°27' W 000°19'0 0.0
2016-Aug-24 07:22N 39°27' W 000°19'0 0.0
2016-Aug-24 06:31N 39°27' W 000°19'0 0.0
2016-Aug-24 04:31N 39°27' W 000°19'0 0.0
2016-Aug-24 03:25N 39°27' W 000°19'0 0.0
2016-Aug-24 02:31N 39°27' W 000°19'0 0.0
2016-Aug-24 01:31N 39°27' W 000°19'0 0.0
2016-Aug-24 00:22N 39°27' W 000°19'0 0.0
2016-Aug-23 20:13N 39°27' W 000°19'0 0.0
2016-Aug-23 17:16N 39°27' W 000°19'0 0.0
2016-Aug-23 16:22N 39°27' W 000°19'0 0.0
2016-Aug-23 15:10N 39°27' W 000°19'0 0.0
2016-Aug-23 14:28N 39°27' W 000°19'0 0.0
2016-Aug-23 13:31N 39°27' W 000°19'0 0.0
2016-Aug-23 12:31N 39°27' W 000°19'0 0.0
2016-Aug-23 11:31N 39°27' W 000°19'0 0.0
2016-Aug-23 10:28N 39°27' W 000°19'0 0.0
2016-Aug-23 09:28N 39°27' W 000°19'0 0.0
2016-Aug-23 08:31N 39°27' W 000°19'0 0.0
2016-Aug-23 07:28N 39°27' W 000°19'0 0.0
2016-Aug-23 06:28N 39°27' W 000°19'0 0.0
2016-Aug-23 05:31N 39°27' W 000°19'0 0.0
2016-Aug-23 04:31N 39°27' W 000°19'0 0.0
2016-Aug-23 03:31N 39°27' W 000°19'0 0.0
2016-Aug-23 02:31N 39°27' W 000°19'0 0.0
2016-Aug-23 01:31N 39°27' W 000°19'0 0.0
2016-Aug-23 00:31N 39°27' W 000°19'0 0.0
2016-Aug-22 23:31N 39°27' W 000°19'0 0.0
2016-Aug-22 22:31N 39°27' W 000°19'0 0.0
2016-Aug-22 21:31N 39°27' W 000°19'0 0.0
2016-Aug-22 20:31N 39°27' W 000°19'0 0.0
2016-Aug-22 19:28N 39°27' W 000°19'0 0.0
2016-Aug-22 18:31N 39°27' W 000°19'0 0.0
2016-Aug-22 17:31N 39°27' W 000°19'0 0.0
2016-Aug-22 16:31N 39°27' W 000°19'0 0.0
2016-Aug-22 15:16N 39°27' W 000°19'0 0.0
2016-Aug-22 14:25N 39°27' W 000°19'0 0.0
2016-Aug-22 13:31N 39°27' W 000°19'0 0.0
2016-Aug-22 12:28N 39°27' W 000°19'0 0.0
2016-Aug-22 11:19N 39°27' W 000°19'0 0.0
2016-Aug-22 10:31N 39°27' W 000°19'0 0.0
2016-Aug-22 09:28N 39°27' W 000°19'0 0.0
2016-Aug-22 08:31N 39°27' W 000°19'0 0.0
2016-Aug-22 06:25N 39°27' W 000°19'0 0.0
2016-Aug-22 05:25N 39°27' W 000°19'0 0.0
2016-Aug-22 04:22N 39°27' W 000°19'4 4.5
2016-Aug-22 03:32N 39°25' W 000°15'10111.1
2016-Aug-21 18:23N 37°44' W 000°22'1113.6
2016-Aug-21 17:33N 37°34' W 000°29'1413.5
2016-Aug-21 16:31N 37°25' W 000°42'6013.9
2016-Aug-21 12:11N 36°44' W 001°39'4813.1
2016-Aug-21 08:32N 36°20' W 002°30'1312.8
2016-Aug-21 07:33N 36°17' W 002°46'11115.5
2016-Aug-21 00:21N 36°02' W 005°02'1518.2
2016-Aug-20 23:33N 35°59' W 005°19'2116.3
2016-Aug-20 22:15N 35°54' W 005°45'42614.3
2016-Aug-19 16:30N 31°05' W 011°60'10514.2
2016-Aug-19 09:07N 29°52' W 013°28'2314.5
2016-Aug-19 07:32N 29°36' W 013°47'1414.1
2016-Aug-19 06:33N 29°25' W 013°57'1414.0
2016-Aug-19 05:33N 29°14' W 014°06'1414.5
2016-Aug-19 04:33N 29°02' W 014°16'1414.5
2016-Aug-19 03:33N 28°50' W 014°25'1414.3
2016-Aug-19 02:33N 28°39' W 014°35'1414.1
2016-Aug-19 01:33N 28°27' W 014°44'1414.2
2016-Aug-19 00:33N 28°15' W 014°52'1414.3
2016-Aug-18 23:33N 28°01' W 014°57'1414.1
2016-Aug-18 22:33N 27°48' W 015°03'1313.3
2016-Aug-18 21:33N 27°36' W 015°09'2613.1
2016-Aug-18 19:33N 27°14' W 015°25'1513.4
2016-Aug-18 18:25N 27°00' W 015°33'  

Dump ship's entire track history